Beckwith, Iowa
Current Conditions -  °F | °C
As of 8:55 PM on Tuesday 25 Nov 2014 (Local Time) from KFFL Reporting Station
Clear Clear  
Wind Chill: 14°   Ceiling: Unl
Heat Index: 23°   Visibility: 10mi
Dew Point: 18°   Wind: 8mph
Humidity: 80%   Direction: 140°SE
Pressure: 30.11"   Gusts: NA
Location:  40.9879°N, 91.8924°W
Report Text: KFFL 260255Z AUTO 14007KT 10SM CLR M05/M08 A3011 RMK AO2
Loading
Personal Weather Stations






























Interactive Weather Map New forecast layout! Learn more

10-Day Weather Forecast

Advertisements
Track Severe Weather on mobile